Lakeview, OR

1:34 PM PDT on September 30, 2016 (GMT -0700)
Lake County | | Change Station
Active Advisory: Fire Weather Warning

Elev 4728 ft 42.16 °N, 120.40 °W | Updated 19 minutes ago

Mostly Cloudy
Mostly Cloudy
72 °F
Feels Like 72 °F
N
25
Wind Variable Wind from SSW
Gusts 31 mph

Today
High -- | Low -- °F
--% Chance of Precip.
Yesterday
High -- | Low -- °F
Precip. -- in
Pressure 30.04 in
Visibility 10.0 miles
Clouds Mostly Cloudy 9500 ft
Dew Point 32 °F
Humidity 23%
Rainfall 0.00 in
Snow Depth Not available.
6:58 AM 6:43 PM
Waning Crescent, 0% visible
METAR KLKV 302015Z 20022G27KT 10SM BKN095 22/00 A3004 RMK AO1
Pressure 30.04 in
Visibility 10.0 miles
Clouds Mostly Cloudy 9500 ft
Dew Point 32 °F
Humidity 23%
Rainfall 0.00 in
Snow Depth Not available.
6:58 AM 6:43 PM
Waning Crescent, 0% visible
METAR KLKV 302015Z 20022G27KT 10SM BKN095 22/00 A3004 RMK AO1

10-Day Weather Forecast

Almanac

Astronomy

Sep. 30, 2016 Rise Set
Actual Time
Civil Twilight
Nautical Twilight
Astronomical Twilight
Moon
Length of Visible Light
Length of Day
Tomorrow will be .
, % of the Moon is Illuminated

Today's Extremes

State Highs State Lows

Community

WunderPhotos

Upload Photos

1,942,764 photos uploaded!

WunderBlog® & News

Nearby

Air Quality

  Air Quality AQ Index Pollutant
Not available.

Snow Depth

Station Depth Elevation

Earthquake Activity

City Distance Mag. Time & Date
Minimum magnitude displayed is 2.5.

Coastal Water Temperatures

Place Temperature

Stations

Nearby Weather Stations

Station Location Temp. Windchill Dew Point Humidity Wind Precip. Elev Updated Type
                   

Watches & Warnings

Fire Weather Warning
Issued: 4:56 AM PDT Sep. 30, 2016 – National Weather Service

... Red flag warning remains in effect from 1 PM this afternoon to
7 PM PDT this evening for strong gusty winds and low humidity for
fire weather zones 285 and 624...
... Near critical fire weather conditions for portions of fire
weather zone 284 today...

* impacts: strong... gusty wind with low relative humidity and
high fire danger will likely contribute to a significant
spread of new and existing fires.

* Affected area: in northern CA fire zone... .285. In south
central or fire zone... .624. This is primarily the southern
part of the Fremont Winema National Forest and the northern
part of the Modoc National Forest.

* Counties affected: in northern CA... Modoc. In south central
or... Klamath... lake.

* Wind: south 15 to 25 mph with gusts up to 40 mph.

* Humidity: as low as 15 percent.

* View the hazard area in detail at
http://weather.Gov/Medford/hazard

Precautionary/preparedness actions...

* a red flag warning means that critical fire weather conditions
are ongoing or will occur shortly.

* Strong winds and low relative humidities will cause any
existing or new fires to spread very rapidly.

* One less spark... one less wildfire.